createdAt,value
2018-12-26T00:03:02.029Z,85.31
2018-12-26T00:08:14.790Z,86.02
2018-12-26T00:13:23.375Z,86.37
2018-12-26T00:18:32.406Z,86.53
2018-12-26T00:23:45.877Z,87.03
2018-12-26T00:28:59.470Z,87.47
2018-12-26T00:34:07.657Z,87.57
2018-12-26T00:39:21.475Z,87.07
2018-12-26T00:44:34.086Z,87.39
2018-12-26T00:49:46.691Z,87.21
2018-12-26T00:54:59.382Z,87.62
2018-12-26T01:00:13.464Z,87.88
2018-12-26T01:05:22.391Z,87.95
2018-12-26T01:10:31.432Z,88.16
2018-12-26T01:15:39.640Z,87.79
2018-12-26T01:20:50.626Z,88.01
2018-12-26T01:26:03.463Z,88.08
2018-12-26T01:31:13.895Z,87.92
2018-12-26T01:36:26.988Z,88.04
2018-12-26T01:41:39.686Z,88.14
2018-12-26T01:46:50.465Z,88.09
2018-12-26T01:52:03.044Z,88.23
2018-12-26T01:57:15.755Z,87.94
2018-12-26T02:02:23.988Z,87.63
2018-12-26T02:07:35.045Z,87.67
2018-12-26T02:12:48.786Z,88.02
2018-12-26T02:18:01.059Z,88.42
2018-12-26T02:23:14.181Z,88.36
2018-12-26T02:28:28.103Z,88.32
2018-12-26T02:33:37.203Z,88.13
2018-12-26T02:38:51.591Z,87.89
2018-12-26T02:43:58.780Z,87.51
2018-12-26T02:49:13.425Z,87.04
2018-12-26T02:54:25.715Z,87.60
2018-12-26T02:59:38.484Z,87.66
2018-12-26T03:04:50.965Z,87.66
2018-12-26T03:10:02.671Z,87.71
2018-12-26T03:15:11.762Z,87.51
2018-12-26T03:20:26.253Z,87.78
2018-12-26T03:25:34.388Z,87.61
2018-12-26T03:30:47.406Z,87.24
2018-12-26T03:36:01.231Z,86.85
2018-12-26T03:41:31.535Z,87.08
2018-12-26T03:46:45.859Z,87.02
2018-12-26T03:51:58.649Z,86.79
2018-12-26T03:57:08.516Z,86.96
2018-12-26T04:02:19.430Z,86.93
2018-12-26T04:07:34.001Z,86.67
2018-12-26T04:12:48.226Z,86.17
2018-12-26T04:17:53.418Z,87.05
2018-12-26T04:23:04.263Z,87.41
2018-12-26T04:28:18.518Z,87.55
2018-12-26T04:33:26.347Z,87.18
2018-12-26T04:38:33.808Z,86.95
2018-12-26T04:43:47.595Z,87.70
2018-12-26T04:48:59.917Z,87.12
2018-12-26T04:54:10.209Z,86.98
2018-12-26T04:59:17.951Z,87.79
2018-12-26T05:04:27.878Z,87.90
2018-12-26T05:09:36.920Z,88.44
2018-12-26T05:14:47.883Z,88.60
2018-12-26T05:19:54.709Z,88.37
2018-12-26T05:25:01.701Z,88.16
2018-12-26T05:31:09.975Z,88.81
2018-12-26T05:36:18.223Z,88.77
2018-12-26T05:41:29.935Z,88.82
2018-12-26T05:46:41.659Z,88.14
2018-12-26T05:51:52.748Z,88.42
2018-12-26T05:57:00.404Z,87.79
2018-12-26T06:02:11.100Z,87.78
2018-12-26T06:07:20.086Z,87.38
2018-12-26T06:12:33.007Z,86.93
2018-12-26T06:17:41.198Z,86.75
2018-12-26T06:22:50.084Z,87.09
2018-12-26T06:28:03.796Z,87.63
2018-12-26T06:33:10.721Z,86.96
2018-12-26T06:38:19.279Z,86.56
2018-12-26T06:43:32.040Z,86.56
2018-12-26T06:48:41.913Z,86.49
2018-12-26T06:53:51.159Z,86.66
2018-12-26T06:59:03.247Z,86.41
2018-12-26T07:04:17.659Z,86.19
2018-12-26T07:09:33.007Z,86.70
2018-12-26T07:14:41.353Z,86.19
2018-12-26T07:19:53.743Z,86.28
2018-12-26T07:25:06.871Z,85.58
2018-12-26T07:30:17.366Z,85.85
2018-12-26T07:35:24.629Z,87.42
2018-12-26T07:40:37.373Z,88.49
2018-12-26T07:45:52.357Z,88.69
2018-12-26T07:51:04.113Z,88.72
2018-12-26T07:56:17.705Z,88.43
2018-12-26T08:01:25.444Z,89.24
2018-12-26T08:06:39.012Z,89.44
2018-12-26T08:11:47.353Z,90.56
2018-12-26T08:16:59.204Z,90.99
2018-12-26T08:22:08.358Z,91.93
2018-12-26T08:27:20.940Z,92.86
2018-12-26T08:32:32.585Z,92.96
2018-12-26T08:37:45.957Z,93.15
2018-12-26T08:42:58.722Z,93.44
2018-12-26T08:48:08.697Z,94.23
2018-12-26T08:53:21.312Z,94.17
2018-12-26T08:58:35.167Z,93.84
2018-12-26T09:03:36.930Z,93.98
2018-12-26T09:08:46.806Z,93.95
2018-12-26T09:13:55.826Z,94.51
2018-12-26T09:19:10.700Z,94.40
2018-12-26T09:24:24.105Z,95.04
2018-12-26T09:29:37.547Z,95.49
2018-12-26T09:34:46.019Z,95.33
2018-12-26T09:39:58.448Z,95.47
2018-12-26T09:45:12.487Z,95.59
2018-12-26T09:50:22.987Z,95.44
2018-12-26T09:55:30.238Z,95.47
2018-12-26T10:00:40.167Z,94.58
2018-12-26T10:05:51.143Z,94.13
2018-12-26T10:11:00.111Z,94.42
2018-12-26T10:16:12.646Z,94.74
2018-12-26T10:21:23.484Z,95.19
2018-12-26T10:26:33.411Z,94.96
2018-12-26T10:31:45.095Z,95.19
2018-12-26T10:36:57.783Z,95.75
2018-12-26T10:42:10.577Z,96.15
2018-12-26T10:47:21.934Z,95.53
2018-12-26T10:52:33.468Z,95.68
2018-12-26T10:57:45.217Z,96.06
2018-12-26T11:02:55.219Z,96.26
2018-12-26T11:08:28.996Z,96.48
2018-12-26T11:13:39.770Z,96.28
2018-12-26T11:18:52.841Z,95.82
2018-12-26T11:24:03.667Z,95.62
2018-12-26T11:29:18.486Z,95.74
2018-12-26T11:34:27.246Z,95.18
2018-12-26T11:39:40.009Z,95.37
2018-12-26T11:44:51.883Z,94.95
2018-12-26T11:50:04.872Z,94.26
2018-12-26T11:55:20.630Z,93.96
2018-12-26T12:00:33.181Z,94.19
2018-12-26T12:05:50.283Z,94.77
2018-12-26T12:10:57.890Z,95.11
2018-12-26T12:16:09.319Z,94.69
2018-12-26T12:21:17.956Z,94.91
2018-12-26T12:26:28.777Z,94.53
2018-12-26T12:31:41.193Z,95.12
2018-12-26T12:36:53.776Z,94.93
2018-12-26T12:42:07.270Z,94.72
2018-12-26T12:47:17.166Z,94.05
2018-12-26T12:52:29.767Z,94.40
2018-12-26T12:57:46.091Z,93.88
2018-12-26T13:03:00.616Z,93.32
2018-12-26T13:08:13.230Z,92.81
2018-12-26T13:13:24.294Z,93.36
2018-12-26T13:18:38.244Z,93.12
2018-12-26T13:23:45.975Z,93.05
2018-12-26T13:28:55.108Z,92.92
2018-12-26T13:34:03.682Z,92.37
2018-12-26T13:39:17.447Z,92.76
2018-12-26T13:44:29.927Z,92.76
2018-12-26T13:49:41.644Z,92.52
2018-12-26T13:54:53.416Z,92.33
2018-12-26T14:00:07.052Z,92.51
2018-12-26T14:05:15.459Z,92.23
2018-12-26T14:10:26.990Z,92.28
2018-12-26T14:15:36.882Z,92.03
2018-12-26T14:20:55.605Z,92.17
2018-12-26T14:26:08.485Z,91.69
2018-12-26T14:31:20.489Z,91.59
2018-12-26T14:36:28.878Z,91.67
2018-12-26T14:41:42.446Z,91.67
2018-12-26T14:46:50.429Z,91.57
2018-12-26T14:52:03.416Z,92.12
2018-12-26T14:57:22.153Z,91.60
2018-12-26T15:02:29.734Z,91.35
2018-12-26T15:07:44.138Z,91.27
2018-12-26T15:12:53.955Z,90.93
2018-12-26T15:18:06.280Z,91.34
2018-12-26T15:23:21.673Z,91.42
2018-12-26T15:28:34.655Z,91.46
2018-12-26T15:33:48.745Z,91.10
2018-12-26T15:38:57.823Z,91.54
2018-12-26T15:44:04.674Z,91.53
2018-12-26T15:49:13.782Z,90.70
2018-12-26T15:54:24.780Z,90.79
2018-12-26T15:59:42.599Z,90.81
2018-12-26T16:04:54.308Z,90.66
2018-12-26T16:10:05.406Z,90.65
2018-12-26T16:15:14.622Z,90.74
2018-12-26T16:20:25.872Z,91.21
2018-12-26T16:25:33.393Z,91.62
2018-12-26T16:30:46.541Z,92.43
2018-12-26T16:35:57.768Z,92.94
2018-12-26T16:41:09.549Z,92.34
2018-12-26T16:46:22.303Z,91.89
2018-12-26T16:51:31.703Z,92.05
2018-12-26T16:56:41.500Z,92.73
2018-12-26T17:01:54.789Z,92.61
2018-12-26T17:07:04.316Z,92.30
2018-12-26T17:12:15.044Z,92.46
2018-12-26T17:17:24.675Z,93.26
2018-12-26T17:22:36.550Z,93.31
2018-12-26T17:27:52.453Z,93.41
2018-12-26T17:33:06.005Z,92.67
2018-12-26T17:38:15.383Z,92.36
2018-12-26T17:43:28.883Z,92.37
2018-12-26T17:48:39.684Z,92.37
2018-12-26T17:54:28.143Z,92.39
2018-12-26T17:59:55.259Z,92.56
2018-12-26T18:05:10.435Z,92.49
2018-12-26T18:10:17.766Z,92.58
2018-12-26T18:15:28.722Z,92.17
2018-12-26T18:20:40.808Z,92.19
2018-12-26T18:25:53.363Z,92.01
2018-12-26T18:31:02.567Z,91.58
2018-12-26T18:36:19.891Z,91.07
2018-12-26T18:41:28.943Z,90.96
2018-12-26T18:46:41.798Z,90.91
2018-12-26T18:51:50.280Z,90.74
2018-12-26T18:57:02.181Z,90.97
2018-12-26T19:02:17.765Z,90.47
2018-12-26T19:07:25.169Z,90.35
2018-12-26T19:12:38.669Z,89.78
2018-12-26T19:17:54.001Z,89.46
2018-12-26T19:23:06.539Z,88.76
2018-12-26T19:28:20.578Z,88.38
2018-12-26T19:33:29.884Z,87.90
2018-12-26T19:38:41.387Z,86.92
2018-12-26T19:43:51.398Z,86.67
2018-12-26T19:49:01.470Z,86.79
2018-12-26T19:54:13.274Z,87.70
2018-12-26T19:59:22.437Z,88.40
2018-12-26T20:04:33.892Z,88.48
2018-12-26T20:09:41.920Z,88.45
2018-12-26T20:14:53.606Z,88.44
2018-12-26T20:20:01.474Z,88.78
2018-12-26T20:25:09.817Z,89.64
2018-12-26T20:30:18.956Z,89.80
2018-12-26T20:35:29.073Z,89.83
2018-12-26T20:40:38.887Z,89.88
2018-12-26T20:45:52.454Z,89.99
2018-12-26T20:50:59.807Z,89.81
2018-12-26T20:56:14.479Z,89.88
2018-12-26T21:01:25.252Z,90.11
2018-12-26T21:06:38.825Z,90.20
2018-12-26T21:11:51.817Z,90.04
2018-12-26T21:17:02.663Z,90.19
2018-12-26T21:22:14.438Z,90.15
2018-12-26T21:27:25.318Z,89.75
2018-12-26T21:32:36.968Z,89.76
2018-12-26T21:37:46.047Z,89.40
2018-12-26T21:42:56.965Z,89.17
2018-12-26T21:48:04.968Z,88.76
2018-12-26T21:53:19.318Z,88.95
2018-12-26T21:58:33.163Z,88.46
2018-12-26T22:03:42.507Z,87.55
2018-12-26T22:08:49.912Z,87.13
2018-12-26T22:13:58.075Z,86.82
2018-12-26T22:19:04.527Z,86.90
2018-12-26T22:24:14.624Z,86.78
2018-12-26T22:29:27.340Z,86.47
2018-12-26T22:34:38.093Z,86.46
2018-12-26T22:39:55.788Z,86.30
2018-12-26T22:45:06.578Z,86.08
2018-12-26T22:50:17.414Z,86.68
2018-12-26T22:55:29.957Z,86.33
2018-12-26T23:00:47.914Z,86.26
2018-12-26T23:06:03.690Z,85.93
2018-12-26T23:11:20.913Z,86.10
2018-12-26T23:16:33.928Z,86.03
2018-12-26T23:21:47.451Z,86.07
2018-12-26T23:27:00.004Z,85.97
2018-12-26T23:32:14.311Z,85.76
2018-12-26T23:37:27.962Z,85.55
2018-12-26T23:42:35.324Z,85.19
2018-12-26T23:47:45.028Z,85.05
2018-12-26T23:52:52.443Z,84.71
2018-12-26T23:58:07.199Z,84.69
